createdAt,value
2018-12-26T00:02:13.484Z,7.41
2018-12-26T00:04:47.598Z,7.41
2018-12-26T00:07:25.819Z,7.40
2018-12-26T00:09:58.771Z,7.40
2018-12-26T00:12:31.033Z,7.42
2018-12-26T00:15:00.902Z,7.44
2018-12-26T00:17:30.725Z,7.38
2018-12-26T00:20:00.492Z,7.42
2018-12-26T00:22:30.185Z,7.30
2018-12-26T00:24:59.862Z,7.27
2018-12-26T00:27:29.557Z,7.37
2018-12-26T00:29:59.325Z,7.34
2018-12-26T00:32:29.020Z,7.22
2018-12-26T00:34:58.743Z,7.32
2018-12-26T00:37:28.505Z,7.35
2018-12-26T00:39:58.228Z,7.31
2018-12-26T00:42:27.974Z,7.43
2018-12-26T00:44:57.639Z,7.53
2018-12-26T00:47:27.344Z,7.33
2018-12-26T00:49:57.096Z,7.23
2018-12-26T00:52:26.807Z,7.38
2018-12-26T00:54:56.573Z,7.39
2018-12-26T00:57:26.334Z,7.44
2018-12-26T00:59:56.113Z,7.34
2018-12-26T01:02:25.855Z,7.29
2018-12-26T01:04:55.543Z,7.26
2018-12-26T01:07:25.321Z,7.26
2018-12-26T01:09:55.164Z,7.21
2018-12-26T01:12:25.099Z,7.23
2018-12-26T01:14:58.291Z,7.17
2018-12-26T01:17:28.434Z,7.14
2018-12-26T01:19:58.269Z,7.25
2018-12-26T01:22:28.018Z,7.23
2018-12-26T01:24:57.750Z,7.13
2018-12-26T01:27:27.595Z,7.30
2018-12-26T01:29:57.359Z,7.10
2018-12-26T01:32:27.132Z,7.10
2018-12-26T01:34:56.914Z,7.06
2018-12-26T01:37:26.731Z,7.10
2018-12-26T01:39:56.558Z,7.02
2018-12-26T01:42:26.340Z,7.15
2018-12-26T01:44:56.493Z,7.22
2018-12-26T01:47:26.341Z,7.14
2018-12-26T01:49:56.096Z,7.00
2018-12-26T01:52:25.765Z,7.05
2018-12-26T01:54:55.560Z,7.08
2018-12-26T01:57:25.360Z,7.03
2018-12-26T01:59:55.228Z,6.94
2018-12-26T02:02:25.100Z,6.96
2018-12-26T02:04:55.084Z,6.96
2018-12-26T02:07:24.825Z,6.81
2018-12-26T02:09:54.681Z,6.86
2018-12-26T02:12:24.360Z,6.74
2018-12-26T02:14:54.197Z,6.87
2018-12-26T02:17:24.062Z,6.81
2018-12-26T02:19:53.903Z,6.80
2018-12-26T02:22:23.610Z,6.79
2018-12-26T02:24:53.313Z,6.87
2018-12-26T02:27:23.086Z,6.81
2018-12-26T02:29:52.764Z,6.85
2018-12-26T02:32:22.569Z,6.92
2018-12-26T02:34:52.314Z,6.89
2018-12-26T02:37:22.067Z,6.77
2018-12-26T02:39:51.770Z,6.77
2018-12-26T02:42:21.546Z,6.79
2018-12-26T02:44:51.297Z,6.76
2018-12-26T02:47:21.069Z,6.69
2018-12-26T02:49:50.872Z,6.73
2018-12-26T02:52:20.589Z,6.76
2018-12-26T02:54:50.429Z,6.76
2018-12-26T02:57:20.192Z,6.71
2018-12-26T02:59:50.031Z,6.69
2018-12-26T03:02:19.805Z,6.79
2018-12-26T03:04:49.628Z,6.78
2018-12-26T03:07:19.335Z,6.88
2018-12-26T03:09:49.078Z,6.80
2018-12-26T03:12:18.936Z,6.71
2018-12-26T03:14:48.780Z,6.75
2018-12-26T03:17:18.551Z,6.74
2018-12-26T03:19:48.368Z,6.76
2018-12-26T03:22:18.278Z,6.77
2018-12-26T03:24:48.012Z,6.90
2018-12-26T03:27:17.763Z,6.86
2018-12-26T03:29:47.597Z,6.84
2018-12-26T03:32:17.455Z,6.83
2018-12-26T03:34:47.258Z,6.81
2018-12-26T03:37:17.319Z,6.89
2018-12-26T03:39:47.177Z,6.76
2018-12-26T03:42:16.941Z,6.78
2018-12-26T03:44:47.518Z,6.72
2018-12-26T03:47:17.881Z,6.88
2018-12-26T03:49:47.730Z,6.73
2018-12-26T03:52:18.177Z,6.78
2018-12-26T03:54:48.222Z,6.74
2018-12-26T03:57:18.092Z,6.83
2018-12-26T03:59:48.046Z,6.81
2018-12-26T04:02:17.913Z,6.76
2018-12-26T04:04:47.823Z,6.68
2018-12-26T04:07:17.585Z,6.80
2018-12-26T04:09:47.383Z,6.77
2018-12-26T04:12:17.212Z,6.77
2018-12-26T04:14:47.077Z,6.81
2018-12-26T04:17:16.965Z,6.83
2018-12-26T04:19:46.717Z,6.83
2018-12-26T04:22:16.449Z,6.79
2018-12-26T04:24:48.033Z,6.87
2018-12-26T04:27:18.199Z,6.73
2018-12-26T04:29:47.976Z,6.72
2018-12-26T04:32:17.773Z,6.77
2018-12-26T04:34:47.534Z,6.78
2018-12-26T04:37:17.306Z,6.67
2018-12-26T04:39:47.150Z,6.74
2018-12-26T04:42:17.163Z,6.69
2018-12-26T04:44:46.912Z,6.84
2018-12-26T04:47:16.712Z,6.76
2018-12-26T04:49:46.459Z,6.74
2018-12-26T04:52:16.335Z,6.90
2018-12-26T04:54:46.082Z,6.68
2018-12-26T04:57:24.481Z,6.63
2018-12-26T04:59:47.178Z,6.79
2018-12-26T05:02:17.013Z,6.84
2018-12-26T05:04:46.810Z,6.98
2018-12-26T05:07:16.595Z,6.91
2018-12-26T05:09:46.373Z,6.83
2018-12-26T05:12:16.143Z,6.84
2018-12-26T05:14:45.949Z,6.86
2018-12-26T05:17:15.723Z,6.90
2018-12-26T05:19:45.590Z,6.95
2018-12-26T05:22:15.358Z,6.85
2018-12-26T05:24:45.202Z,6.77
2018-12-26T05:27:14.970Z,6.90
2018-12-26T05:29:44.751Z,6.94
2018-12-26T05:32:14.538Z,7.06
2018-12-26T05:34:44.216Z,6.85
2018-12-26T05:37:14.017Z,6.96
2018-12-26T05:39:43.735Z,6.93
2018-12-26T05:42:13.505Z,6.87
2018-12-26T05:44:43.256Z,6.87
2018-12-26T05:47:13.041Z,6.89
2018-12-26T05:49:42.883Z,6.94
2018-12-26T05:52:12.724Z,6.89
2018-12-26T05:54:42.437Z,6.91
2018-12-26T05:57:12.246Z,6.93
2018-12-26T05:59:42.014Z,6.96
2018-12-26T06:02:11.804Z,6.90
2018-12-26T06:04:41.579Z,7.00
2018-12-26T06:07:11.276Z,6.97
2018-12-26T06:09:40.985Z,7.02
2018-12-26T06:12:11.549Z,7.02
2018-12-26T06:14:41.434Z,7.02
2018-12-26T06:17:11.218Z,7.03
2018-12-26T06:19:40.953Z,6.96
2018-12-26T06:22:10.645Z,6.95
2018-12-26T06:24:40.387Z,6.98
2018-12-26T06:27:10.131Z,6.95
2018-12-26T06:29:39.860Z,6.92
2018-12-26T06:32:09.543Z,6.95
2018-12-26T06:34:39.260Z,7.00
2018-12-26T06:37:09.147Z,6.89
2018-12-26T06:39:38.837Z,6.88
2018-12-26T06:42:08.591Z,6.88
2018-12-26T06:44:38.366Z,6.98
2018-12-26T06:47:08.101Z,6.94
2018-12-26T06:49:38.000Z,6.98
2018-12-26T06:52:07.741Z,6.89
2018-12-26T06:54:37.525Z,6.96
2018-12-26T06:57:07.268Z,7.09
2018-12-26T06:59:36.987Z,6.98
2018-12-26T07:02:06.848Z,6.98
2018-12-26T07:04:36.807Z,7.00
2018-12-26T07:07:06.525Z,6.96
2018-12-26T07:09:36.285Z,6.99
2018-12-26T07:12:06.069Z,6.96
2018-12-26T07:14:35.939Z,7.10
2018-12-26T07:17:05.607Z,7.03
2018-12-26T07:19:35.524Z,6.97
2018-12-26T07:22:05.380Z,7.02
2018-12-26T07:24:35.222Z,6.97
2018-12-26T07:27:04.999Z,7.14
2018-12-26T07:29:34.911Z,7.16
2018-12-26T07:32:04.686Z,7.13
2018-12-26T07:34:41.996Z,7.15
2018-12-26T07:37:05.770Z,7.18
2018-12-26T07:39:35.572Z,7.18
2018-12-26T07:42:05.306Z,7.16
2018-12-26T07:44:35.096Z,7.22
2018-12-26T07:47:04.793Z,7.17
2018-12-26T07:49:34.531Z,7.14
2018-12-26T07:52:04.278Z,7.25
2018-12-26T07:54:34.009Z,7.19
2018-12-26T07:57:03.794Z,7.18
2018-12-26T07:59:37.551Z,7.14
2018-12-26T08:02:05.817Z,7.27
2018-12-26T08:04:35.658Z,7.09
2018-12-26T08:07:05.476Z,7.19
2018-12-26T08:09:35.364Z,7.11
2018-12-26T08:12:05.140Z,7.04
2018-12-26T08:14:35.097Z,7.05
2018-12-26T08:17:05.350Z,7.09
2018-12-26T08:19:35.486Z,7.18
2018-12-26T08:22:05.600Z,7.03
2018-12-26T08:24:35.834Z,7.10
2018-12-26T08:27:07.866Z,7.14
2018-12-26T08:29:39.390Z,7.18
2018-12-26T08:32:10.623Z,7.11
2018-12-26T08:34:40.699Z,7.14
2018-12-26T08:37:10.940Z,7.14
2018-12-26T08:39:41.138Z,7.16
2018-12-26T08:42:11.074Z,7.15
2018-12-26T08:44:41.341Z,7.20
2018-12-26T08:47:11.204Z,7.18
2018-12-26T08:49:40.932Z,7.17
2018-12-26T08:52:10.682Z,7.22
2018-12-26T08:54:40.416Z,7.19
2018-12-26T08:57:10.130Z,7.34
2018-12-26T08:59:39.918Z,7.31
2018-12-26T09:02:09.664Z,7.23
2018-12-26T09:04:39.427Z,7.32
2018-12-26T09:07:09.220Z,7.32
2018-12-26T09:09:38.941Z,7.31
2018-12-26T09:12:08.665Z,7.34
2018-12-26T09:14:41.271Z,7.38
2018-12-26T09:17:10.995Z,7.36
2018-12-26T09:19:40.661Z,7.28
2018-12-26T09:22:10.473Z,7.34
2018-12-26T09:24:40.210Z,7.42
2018-12-26T09:27:12.690Z,7.41
2018-12-26T09:29:42.433Z,7.37
2018-12-26T09:32:12.938Z,7.41
2018-12-26T09:34:42.706Z,7.48
2018-12-26T09:37:12.483Z,7.49
2018-12-26T09:39:42.297Z,7.60
2018-12-26T09:42:12.135Z,7.56
2018-12-26T09:44:41.926Z,7.49
2018-12-26T09:47:11.717Z,7.51
2018-12-26T09:49:41.532Z,7.42
2018-12-26T09:52:11.303Z,7.51
2018-12-26T09:54:41.073Z,7.50
2018-12-26T09:57:11.681Z,7.53
2018-12-26T09:59:42.275Z,7.53
2018-12-26T10:02:12.060Z,7.57
2018-12-26T10:04:41.758Z,7.58
2018-12-26T10:07:11.531Z,7.62
2018-12-26T10:09:41.493Z,7.66
2018-12-26T10:12:11.159Z,7.66
2018-12-26T10:14:40.870Z,7.72
2018-12-26T10:17:15.558Z,7.67
2018-12-26T10:19:45.446Z,7.83
2018-12-26T10:22:15.160Z,7.83
2018-12-26T10:24:44.858Z,7.90
2018-12-26T10:27:14.729Z,7.79
2018-12-26T10:29:44.442Z,7.86
2018-12-26T10:32:14.207Z,7.86
2018-12-26T10:34:43.952Z,7.93
2018-12-26T10:37:13.658Z,7.86
2018-12-26T10:39:43.487Z,7.96
2018-12-26T10:42:13.216Z,7.83
2018-12-26T10:44:43.068Z,7.84
2018-12-26T10:47:12.856Z,7.91
2018-12-26T10:49:42.642Z,7.97
2018-12-26T10:52:12.438Z,7.97
2018-12-26T10:54:42.153Z,8.00
2018-12-26T10:57:11.856Z,7.98
2018-12-26T10:59:41.655Z,7.99
2018-12-26T11:02:11.522Z,8.09
2018-12-26T11:04:41.346Z,8.12
2018-12-26T11:07:11.079Z,8.13
2018-12-26T11:09:40.877Z,8.07
2018-12-26T11:12:10.698Z,8.21
2018-12-26T11:14:40.408Z,8.19
2018-12-26T11:17:10.284Z,8.21
2018-12-26T11:19:40.100Z,8.16
2018-12-26T11:22:09.959Z,8.11
2018-12-26T11:24:39.857Z,8.07
2018-12-26T11:27:09.747Z,8.11
2018-12-26T11:29:39.617Z,8.16
2018-12-26T11:32:09.495Z,8.16
2018-12-26T11:34:39.183Z,8.20
2018-12-26T11:37:08.944Z,8.15
2018-12-26T11:39:38.734Z,8.23
2018-12-26T11:42:08.504Z,8.21
2018-12-26T11:44:38.256Z,8.25
2018-12-26T11:47:08.053Z,8.22
2018-12-26T11:49:37.744Z,8.27
2018-12-26T11:52:07.500Z,8.20
2018-12-26T11:54:37.291Z,8.26
2018-12-26T11:57:07.092Z,8.34
2018-12-26T11:59:37.100Z,8.27
2018-12-26T12:02:06.862Z,8.37
2018-12-26T12:04:36.730Z,8.34
2018-12-26T12:07:06.537Z,8.37
2018-12-26T12:09:36.295Z,8.24
2018-12-26T12:12:06.169Z,8.25
2018-12-26T12:14:35.886Z,8.24
2018-12-26T12:17:05.689Z,8.30
2018-12-26T12:19:35.446Z,8.30
2018-12-26T12:22:05.267Z,8.25
2018-12-26T12:24:36.742Z,8.30
2018-12-26T12:27:06.997Z,8.41
2018-12-26T12:29:36.858Z,8.38
2018-12-26T12:32:06.714Z,8.30
2018-12-26T12:34:36.428Z,8.41
2018-12-26T12:37:05.952Z,8.28
2018-12-26T12:39:35.720Z,8.39
2018-12-26T12:42:05.523Z,8.44
2018-12-26T12:44:35.354Z,8.52
2018-12-26T12:47:05.230Z,8.35
2018-12-26T12:49:37.150Z,8.41
2018-12-26T12:52:06.728Z,8.39
2018-12-26T12:54:36.495Z,8.49
2018-12-26T12:57:06.307Z,8.46
2018-12-26T12:59:44.577Z,8.57
2018-12-26T13:02:07.627Z,8.56
2018-12-26T13:04:37.387Z,8.54
2018-12-26T13:07:07.105Z,8.57
2018-12-26T13:09:36.825Z,8.65
2018-12-26T13:12:06.759Z,8.56
2018-12-26T13:14:36.575Z,8.57
2018-12-26T13:17:06.354Z,8.66
2018-12-26T13:19:36.194Z,8.68
2018-12-26T13:22:05.989Z,8.74
2018-12-26T13:24:36.142Z,8.76
2018-12-26T13:27:06.133Z,8.77
2018-12-26T13:29:35.841Z,8.69
2018-12-26T13:32:05.791Z,8.75
2018-12-26T13:34:35.556Z,8.85
2018-12-26T13:37:05.406Z,8.78
2018-12-26T13:39:35.130Z,8.90
2018-12-26T13:42:04.964Z,8.87
2018-12-26T13:44:35.120Z,8.88
2018-12-26T13:47:05.057Z,8.85
2018-12-26T13:49:34.841Z,8.89
2018-12-26T13:52:04.754Z,8.89
2018-12-26T13:54:34.601Z,8.82
2018-12-26T13:57:04.336Z,8.77
2018-12-26T13:59:34.076Z,8.88
2018-12-26T14:02:03.952Z,8.81
2018-12-26T14:04:33.809Z,8.83
2018-12-26T14:07:03.542Z,8.88
2018-12-26T14:09:33.467Z,8.90
2018-12-26T14:12:03.280Z,8.90
2018-12-26T14:14:33.040Z,8.94
2018-12-26T14:17:02.787Z,8.93
2018-12-26T14:19:32.739Z,8.83
2018-12-26T14:22:04.222Z,8.80
2018-12-26T14:24:34.130Z,8.89
2018-12-26T14:27:03.891Z,8.87
2018-12-26T14:29:33.739Z,8.98
2018-12-26T14:32:03.545Z,8.95
2018-12-26T14:34:33.340Z,8.91
2018-12-26T14:37:03.048Z,8.94
2018-12-26T14:39:32.870Z,8.89
2018-12-26T14:42:02.667Z,8.83
2018-12-26T14:44:32.451Z,8.87
2018-12-26T14:47:02.220Z,8.92
2018-12-26T14:49:32.042Z,8.90
2018-12-26T14:52:01.806Z,8.85
2018-12-26T14:54:31.526Z,8.94
2018-12-26T14:57:01.261Z,8.95
2018-12-26T14:59:30.959Z,9.04
2018-12-26T15:02:00.715Z,9.00
2018-12-26T15:04:30.401Z,9.08
2018-12-26T15:07:00.197Z,8.94
2018-12-26T15:09:30.000Z,8.92
2018-12-26T15:11:59.745Z,8.89
2018-12-26T15:14:29.490Z,8.95
2018-12-26T15:16:59.214Z,8.99
2018-12-26T15:19:29.102Z,8.96
2018-12-26T15:21:58.784Z,8.92
2018-12-26T15:24:28.540Z,8.86
2018-12-26T15:26:58.346Z,8.87
2018-12-26T15:29:28.139Z,8.98
2018-12-26T15:31:57.955Z,8.95
2018-12-26T15:34:27.746Z,9.02
2018-12-26T15:36:57.546Z,9.00
2018-12-26T15:39:27.380Z,9.00
2018-12-26T15:41:57.180Z,8.98
2018-12-26T15:44:26.863Z,9.03
2018-12-26T15:46:56.707Z,9.07
2018-12-26T15:49:26.393Z,9.00
2018-12-26T15:51:56.279Z,9.03
2018-12-26T15:54:26.205Z,9.08
2018-12-26T15:56:56.001Z,8.94
2018-12-26T15:59:25.810Z,8.95
2018-12-26T16:01:55.603Z,9.13
2018-12-26T16:04:25.532Z,9.13
2018-12-26T16:06:55.278Z,9.09
2018-12-26T16:09:25.099Z,9.11
2018-12-26T16:11:55.004Z,8.99
2018-12-26T16:14:24.840Z,8.94
2018-12-26T16:16:54.614Z,9.01
2018-12-26T16:19:24.455Z,9.02
2018-12-26T16:21:54.285Z,9.03
2018-12-26T16:24:24.118Z,9.03
2018-12-26T16:26:53.950Z,9.05
2018-12-26T16:29:23.664Z,9.07
2018-12-26T16:31:53.475Z,9.02
2018-12-26T16:34:23.279Z,9.09
2018-12-26T16:36:53.114Z,9.15
2018-12-26T16:39:22.954Z,9.03
2018-12-26T16:41:52.713Z,9.00
2018-12-26T16:44:22.520Z,9.00
2018-12-26T16:46:52.281Z,9.00
2018-12-26T16:49:22.167Z,9.02
2018-12-26T16:51:51.977Z,8.96
2018-12-26T16:54:21.727Z,8.96
2018-12-26T16:56:53.357Z,8.85
2018-12-26T16:59:23.266Z,8.96
2018-12-26T17:01:53.053Z,8.94
2018-12-26T17:04:22.891Z,8.99
2018-12-26T17:06:52.641Z,8.92
2018-12-26T17:09:22.402Z,8.84
2018-12-26T17:11:52.220Z,8.99
2018-12-26T17:14:22.028Z,9.01
2018-12-26T17:16:51.870Z,8.99
2018-12-26T17:19:21.595Z,8.92
2018-12-26T17:21:51.391Z,8.98
2018-12-26T17:24:21.286Z,8.98
2018-12-26T17:26:50.973Z,8.95
2018-12-26T17:29:20.670Z,8.95
2018-12-26T17:31:50.459Z,8.86
2018-12-26T17:34:20.150Z,8.94
2018-12-26T17:36:49.862Z,8.92
2018-12-26T17:39:19.704Z,8.92
2018-12-26T17:41:50.892Z,8.90
2018-12-26T17:44:20.636Z,8.82
2018-12-26T17:46:50.370Z,8.84
2018-12-26T17:49:20.142Z,8.82
2018-12-26T17:51:49.843Z,8.86
2018-12-26T17:54:57.008Z,8.87
2018-12-26T17:57:37.663Z,8.84
2018-12-26T18:00:39.222Z,8.78
2018-12-26T18:03:08.955Z,8.78
2018-12-26T18:05:38.711Z,8.78
2018-12-26T18:08:08.431Z,8.92
2018-12-26T18:10:38.261Z,8.75
2018-12-26T18:13:08.059Z,8.83
2018-12-26T18:15:37.814Z,8.90
2018-12-26T18:18:07.665Z,8.77
2018-12-26T18:20:37.409Z,8.94
2018-12-26T18:23:07.215Z,8.82
2018-12-26T18:25:36.909Z,8.68
2018-12-26T18:28:06.627Z,8.69
2018-12-26T18:30:36.402Z,8.85
2018-12-26T18:33:06.212Z,8.82
2018-12-26T18:35:35.929Z,8.65
2018-12-26T18:38:05.638Z,8.76
2018-12-26T18:40:35.421Z,8.70
2018-12-26T18:43:05.180Z,8.73
2018-12-26T18:45:34.962Z,8.65
2018-12-26T18:48:04.719Z,8.62
2018-12-26T18:50:34.513Z,8.75
2018-12-26T18:53:04.202Z,8.58
2018-12-26T18:55:33.993Z,8.57
2018-12-26T18:58:03.791Z,8.75
2018-12-26T19:00:33.472Z,8.66
2018-12-26T19:03:03.201Z,8.59
2018-12-26T19:05:32.974Z,8.70
2018-12-26T19:08:02.759Z,8.57
2018-12-26T19:10:32.502Z,8.57
2018-12-26T19:13:02.303Z,8.66
2018-12-26T19:15:32.071Z,8.51
2018-12-26T19:18:01.851Z,8.53
2018-12-26T19:20:31.667Z,8.64
2018-12-26T19:23:01.441Z,8.63
2018-12-26T19:25:31.264Z,8.63
2018-12-26T19:28:01.087Z,8.61
2018-12-26T19:30:30.863Z,8.56
2018-12-26T19:33:00.655Z,8.59
2018-12-26T19:35:30.815Z,8.56
2018-12-26T19:38:00.678Z,8.58
2018-12-26T19:40:30.555Z,8.54
2018-12-26T19:43:00.287Z,8.56
2018-12-26T19:45:30.034Z,8.46
2018-12-26T19:47:59.711Z,8.46
2018-12-26T19:50:29.446Z,8.54
2018-12-26T19:52:59.196Z,8.54
2018-12-26T19:55:28.871Z,8.57
2018-12-26T19:57:58.673Z,8.55
2018-12-26T20:00:28.354Z,8.60
2018-12-26T20:02:58.061Z,8.48
2018-12-26T20:05:27.849Z,8.71
2018-12-26T20:07:57.556Z,8.60
2018-12-26T20:10:27.364Z,8.58
2018-12-26T20:12:57.167Z,8.55
2018-12-26T20:15:26.964Z,8.60
2018-12-26T20:17:56.707Z,8.62
2018-12-26T20:20:26.448Z,8.67
2018-12-26T20:22:56.209Z,8.66
2018-12-26T20:25:25.949Z,8.65
2018-12-26T20:27:55.620Z,8.52
2018-12-26T20:30:25.401Z,8.53
2018-12-26T20:32:55.207Z,8.62
2018-12-26T20:35:24.929Z,8.35
2018-12-26T20:37:54.771Z,8.53
2018-12-26T20:40:24.490Z,8.44
2018-12-26T20:42:54.170Z,8.48
2018-12-26T20:45:23.882Z,8.53
2018-12-26T20:47:53.561Z,8.51
2018-12-26T20:50:23.369Z,8.47
2018-12-26T20:52:53.159Z,8.44
2018-12-26T20:55:22.836Z,8.52
2018-12-26T20:57:52.545Z,8.50
2018-12-26T21:00:22.310Z,8.64
2018-12-26T21:02:51.986Z,8.60
2018-12-26T21:05:21.713Z,8.53
2018-12-26T21:07:51.719Z,8.53
2018-12-26T21:10:21.605Z,8.54
2018-12-26T21:12:51.292Z,8.58
2018-12-26T21:15:22.820Z,8.52
2018-12-26T21:17:52.704Z,8.52
2018-12-26T21:20:22.464Z,8.43
2018-12-26T21:22:52.188Z,8.42
2018-12-26T21:25:21.989Z,8.37
2018-12-26T21:27:53.398Z,8.56
2018-12-26T21:30:23.136Z,8.55
2018-12-26T21:32:52.907Z,8.50
2018-12-26T21:35:22.905Z,8.43
2018-12-26T21:37:52.676Z,8.51
2018-12-26T21:40:22.492Z,8.66
2018-12-26T21:42:52.297Z,8.60
2018-12-26T21:45:24.629Z,8.45
2018-12-26T21:47:53.498Z,8.45
2018-12-26T21:50:23.286Z,8.46
2018-12-26T21:52:53.018Z,8.41
2018-12-26T21:55:23.113Z,8.32
2018-12-26T21:57:54.991Z,8.42
2018-12-26T22:00:24.796Z,8.57
2018-12-26T22:02:54.491Z,8.48
2018-12-26T22:05:24.167Z,8.46
2018-12-26T22:07:53.863Z,8.48
2018-12-26T22:10:23.628Z,8.47
2018-12-26T22:12:53.360Z,8.38
2018-12-26T22:15:23.235Z,8.34
2018-12-26T22:17:52.974Z,8.35
2018-12-26T22:20:22.746Z,8.48
2018-12-26T22:22:52.461Z,8.39
2018-12-26T22:25:22.174Z,8.31
2018-12-26T22:27:51.856Z,8.39
2018-12-26T22:30:21.655Z,8.39
2018-12-26T22:32:51.478Z,8.38
2018-12-26T22:35:21.149Z,8.34
2018-12-26T22:37:50.932Z,8.32
2018-12-26T22:40:20.823Z,8.35
2018-12-26T22:42:50.609Z,8.30
2018-12-26T22:45:20.377Z,8.22
2018-12-26T22:47:50.421Z,8.20
2018-12-26T22:50:20.562Z,8.24
2018-12-26T22:52:50.322Z,8.30
2018-12-26T22:55:20.209Z,8.20
2018-12-26T22:57:49.960Z,8.18
2018-12-26T23:00:33.359Z,8.44
2018-12-26T23:03:04.838Z,8.35
2018-12-26T23:05:34.691Z,8.26
2018-12-26T23:08:04.643Z,8.28
2018-12-26T23:10:34.477Z,8.23
2018-12-26T23:13:04.344Z,8.30
2018-12-26T23:15:34.206Z,8.31
2018-12-26T23:18:04.164Z,8.23
2018-12-26T23:20:33.918Z,8.18
2018-12-26T23:23:08.756Z,8.11
2018-12-26T23:25:45.918Z,8.22
2018-12-26T23:28:16.902Z,8.15
2018-12-26T23:30:47.618Z,8.27
2018-12-26T23:33:20.703Z,8.12
2018-12-26T23:35:53.661Z,7.98
2018-12-26T23:38:23.495Z,8.07
2018-12-26T23:40:53.283Z,8.11
2018-12-26T23:43:23.058Z,8.20
2018-12-26T23:45:52.763Z,8.32
2018-12-26T23:48:22.618Z,8.30
2018-12-26T23:50:52.797Z,8.21
2018-12-26T23:53:22.557Z,8.06
2018-12-26T23:55:52.335Z,8.15
2018-12-26T23:58:22.184Z,8.11
